createdAt,value
2019-01-24T08:54:27.577Z,49.00
2019-01-24T08:59:31.622Z,50.86
2019-01-24T09:04:35.738Z,50.86
2019-01-24T09:09:39.962Z,51.40
2019-01-24T09:14:44.079Z,51.40
2019-01-24T09:19:48.279Z,54.07
2019-01-24T09:24:52.638Z,55.61
2019-01-24T09:29:56.816Z,55.40
2019-01-24T09:35:01.037Z,57.36
2019-01-24T09:40:08.034Z,58.06
2019-01-24T09:45:18.168Z,58.61
2019-01-24T09:50:23.446Z,56.82
2019-01-24T09:55:27.853Z,57.00
2019-01-24T10:00:34.044Z,55.39
2019-01-24T10:05:38.469Z,55.31
2019-01-24T10:10:42.598Z,55.74
2019-01-24T10:15:46.732Z,56.15
2019-01-24T10:20:50.914Z,56.26
2019-01-24T10:25:55.011Z,56.26
2019-01-24T10:30:59.109Z,57.26
2019-01-24T10:36:03.400Z,57.26
2019-01-24T10:41:07.741Z,56.62
2019-01-24T10:46:12.090Z,56.25
2019-01-24T10:51:16.281Z,56.25
2019-01-24T10:56:20.420Z,56.48
2019-01-24T11:01:24.736Z,56.71
2019-01-24T11:06:29.001Z,57.11
2019-01-24T11:11:33.260Z,57.55
2019-01-24T11:16:37.564Z,57.64
2019-01-24T11:21:41.861Z,57.66
2019-01-24T11:26:46.149Z,57.66
2019-01-24T11:31:50.356Z,57.26
2019-01-24T11:36:57.183Z,57.94
2019-01-24T11:42:00.615Z,58.20
2019-01-24T11:47:04.948Z,59.37
2019-01-24T11:52:09.424Z,59.41
2019-01-24T11:57:13.826Z,59.84
2019-01-24T12:02:18.133Z,59.49
2019-01-24T12:07:22.446Z,59.49
2019-01-24T12:12:26.638Z,58.46
2019-01-24T12:17:30.963Z,58.38
2019-01-24T12:22:35.283Z,58.76
2019-01-24T12:27:39.571Z,58.60
2019-01-24T12:32:43.936Z,59.37
2019-01-24T12:37:48.431Z,59.51
2019-01-24T12:42:52.702Z,60.17
2019-01-24T12:47:56.834Z,60.12
2019-01-24T12:53:11.285Z,40.90
2019-01-24T12:58:15.561Z,41.67
2019-01-24T13:03:19.632Z,41.90
2019-01-24T13:08:23.829Z,41.31
2019-01-24T13:13:32.279Z,43.65
2019-01-24T13:18:36.534Z,43.65
2019-01-24T13:23:40.787Z,43.66
2019-01-24T13:28:44.979Z,45.12
2019-01-24T13:33:49.266Z,46.74
2019-01-24T13:38:53.450Z,46.74
2019-01-24T13:43:57.595Z,49.09
2019-01-24T13:49:01.720Z,50.32
2019-01-24T13:54:05.988Z,50.32
2019-01-24T13:59:10.394Z,50.97
2019-01-24T14:04:18.250Z,51.46
2019-01-24T14:09:22.760Z,51.46
2019-01-24T14:14:27.368Z,51.27
2019-01-24T14:19:31.533Z,51.48
2019-01-24T14:24:35.851Z,51.79
2019-01-24T14:29:40.216Z,51.79
2019-01-24T14:34:44.542Z,53.92
2019-01-24T14:39:49.138Z,54.07
2019-01-24T14:44:53.336Z,55.12
2019-01-24T14:49:58.026Z,54.70
2019-01-24T14:55:02.205Z,55.25
2019-01-24T15:00:19.907Z,55.23
2019-01-24T15:05:24.425Z,54.83
2019-01-24T15:10:29.000Z,54.17
2019-01-24T15:15:33.406Z,54.98
2019-01-24T15:20:38.020Z,54.98
2019-01-24T15:25:42.766Z,56.08
2019-01-24T15:30:47.834Z,56.17
2019-01-24T15:35:52.470Z,57.03
2019-01-24T15:40:57.440Z,57.04
2019-01-24T15:46:02.676Z,56.88
2019-01-24T15:51:07.364Z,55.89
2019-01-24T15:56:12.450Z,55.20
2019-01-24T16:01:17.613Z,55.64
2019-01-24T16:06:22.598Z,55.94
2019-01-24T16:11:27.702Z,56.66
2019-01-24T16:16:32.754Z,56.66
2019-01-24T16:21:37.833Z,57.07
2019-01-24T16:26:42.874Z,57.01
2019-01-24T16:31:49.140Z,57.63
2019-01-24T16:36:54.304Z,57.63
2019-01-24T16:42:00.855Z,57.57
2019-01-24T16:47:06.637Z,57.57
2019-01-24T16:52:12.114Z,57.44
2019-01-24T16:57:17.746Z,55.96
2019-01-24T17:02:22.548Z,56.48
2019-01-24T17:07:28.207Z,55.85
2019-01-24T17:12:33.499Z,55.76
2019-01-24T17:17:38.413Z,54.98
2019-01-24T17:22:43.592Z,55.14
2019-01-24T17:27:48.856Z,54.56
2019-01-24T17:32:54.796Z,55.18
2019-01-24T17:38:01.072Z,55.18
2019-01-24T17:43:07.070Z,55.54
2019-01-24T17:48:12.164Z,55.80
2019-01-24T17:53:20.023Z,55.80
2019-01-24T17:58:25.681Z,55.63
2019-01-24T18:03:30.912Z,55.63
2019-01-24T18:08:36.150Z,55.49
2019-01-24T18:13:42.356Z,55.62
2019-01-24T18:18:48.017Z,55.62
2019-01-24T18:23:53.513Z,55.71
2019-01-24T18:29:00.422Z,55.88
2019-01-24T18:34:06.352Z,56.11
2019-01-24T18:39:13.672Z,55.16
2019-01-24T18:44:18.963Z,55.21
2019-01-24T18:49:24.835Z,55.31
2019-01-24T18:54:30.624Z,55.24
2019-01-24T18:59:36.547Z,55.10
2019-01-24T19:04:43.366Z,55.10
2019-01-24T19:09:49.597Z,56.12
2019-01-24T19:20:02.457Z,55.81
2019-01-24T19:25:09.512Z,56.09
2019-01-24T19:30:19.934Z,56.09
2019-01-24T19:35:26.316Z,55.17
2019-01-24T19:40:33.116Z,55.72
2019-01-24T19:45:39.883Z,55.72
2019-01-24T19:50:46.382Z,55.94
2019-01-24T19:55:52.855Z,56.01
2019-01-24T20:00:59.555Z,56.25
2019-01-24T20:06:05.836Z,56.08
2019-01-24T20:11:12.155Z,55.90
2019-01-24T20:16:18.312Z,56.20
2019-01-24T20:21:24.796Z,56.75
2019-01-24T20:26:30.864Z,56.88
2019-01-24T20:31:37.562Z,56.88
2019-01-24T20:36:43.516Z,57.28
2019-01-24T20:41:49.310Z,57.99
2019-01-24T20:46:56.066Z,57.99
2019-01-24T20:52:01.505Z,58.26
2019-01-24T20:57:06.687Z,58.89
2019-01-24T21:02:12.102Z,58.89
2019-01-24T21:07:17.030Z,59.00
2019-01-24T21:12:22.668Z,59.00
2019-01-24T21:17:28.202Z,58.90
2019-01-24T21:22:32.923Z,59.08
2019-01-24T21:27:37.387Z,59.11
2019-01-24T21:32:42.333Z,58.92
2019-01-24T21:37:47.102Z,59.22
2019-01-24T21:42:52.313Z,59.31
2019-01-24T21:47:56.867Z,59.31
2019-01-24T21:53:01.341Z,59.70
2019-01-24T21:58:07.464Z,59.69
2019-01-24T22:03:11.736Z,60.07
2019-01-24T22:08:16.051Z,59.99
2019-01-24T22:13:20.403Z,59.79
2019-01-24T22:18:24.626Z,59.79
2019-01-24T22:23:28.804Z,59.69
2019-01-24T22:28:33.023Z,59.98
2019-01-24T22:33:37.188Z,59.98
2019-01-24T22:38:41.248Z,60.45
2019-01-24T22:43:45.358Z,60.24
2019-01-24T22:48:49.551Z,60.35
2019-01-24T22:53:53.713Z,60.35
2019-01-24T22:58:57.866Z,60.41
2019-01-24T23:04:14.321Z,60.56
2019-01-24T23:09:18.397Z,60.31
2019-01-24T23:14:22.723Z,60.42
2019-01-24T23:19:26.881Z,60.31
2019-01-24T23:24:31.086Z,61.11
2019-01-24T23:29:35.353Z,60.81
2019-01-24T23:34:39.584Z,61.04
2019-01-24T23:39:43.806Z,60.86
2019-01-24T23:44:48.205Z,60.71
2019-01-24T23:49:52.348Z,60.71
2019-01-24T23:54:56.414Z,60.70
